South Portland, Maine
Current Conditions -  °F | °C
As of 1:51 AM on Thursday 23 Oct 2014 (Local Time) from KPWM Reporting Station
Light Rain Light Rain  
Wind Chill: 42°   Ceiling: 1000
Heat Index: 49°   Visibility: 8mi
Dew Point: 45°   Wind: 21mph
Humidity: 86%   Direction: 30°NNE
Pressure: 29.91"   Gusts: 30mph
Location:  43.64°N, 70.25°W
Report Text: KPWM 230551Z AUTO 03018G26KT 8SM -RA OVC010 09/07 A2991 RMK AO2 PK WND 02026/0539 SLP128 P0004 60030 T00940072 10100 20089 58026
Loading
Personal Weather Stations






























Interactive Weather Map
Tropical Storm Tracking
New forecast layout! Learn more

10-Day Weather Forecast

Advertisements
Track Severe Weather on mobile